Date,TemperatureHighF,TemperatureAvgF,TemperatureLowF,DewpointHighF,DewpointAvgF,DewpointLowF,HumidityHigh,HumidityAvg,HumidityLow,PressureMaxIn,PressureMinIn,WindSpeedMaxMPH,WindSpeedAvgMPH,GustSpeedMaxMPH,PrecipitationSumIn
2012-1-1,48.6,37.8,29.5,40.1,30.4,19.6,88,75,61,30.11,29.57,15,4,0,0.00
2012-1-2,29.5,23.3,20.1,20.9,14.0,8.8,76,67,61,30.33,30.06,17,5,0,0.00
2012-1-3,27.7,19.8,11.5,14.4,10.1,5.0,77,66,53,30.41,30.09,10,1,0,0.00
2012-1-4,45.3,33.2,25.5,28.9,22.1,14.1,76,64,52,30.10,29.91,13,1,0,0.00
2012-1-5,50.5,37.3,25.2,35.9,28.3,19.1,83,71,57,30.04,29.78,12,1,0,0.00
2012-1-6,56.5,45.6,38.5,39.5,34.3,30.9,74,65,52,29.79,29.67,17,1,0,0.00
2012-1-7,45.5,37.1,31.1,31.6,28.5,10.6,80,71,40,30.20,29.75,7,1,0,0.00
2012-1-8,44.2,34.2,25.3,33.1,26.6,20.9,86,74,58,30.33,30.19,5,0,0,0.00
2012-1-9,48.4,35.3,24.4,31.8,25.3,20.3,85,69,44,30.25,30.01,6,0,0,0.00
2012-1-10,52.9,38.6,27.7,36.1,28.8,22.3,81,69,51,30.06,29.82,7,0,0,0.00
2012-1-11,44.4,38.1,30.7,36.7,31.9,25.0,84,78,71,29.81,29.46,11,1,0,0.00
2012-1-12,34.9,23.6,14.2,30.5,19.9,10.4,88,85,83,29.58,29.44,13,1,0,0.02
2012-1-13,19.4,15.7,12.0,14.5,11.3,7.8,85,83,80,30.06,29.58,10,1,0,0.02
2012-1-14,24.6,16.0,8.8,16.8,9.9,3.9,80,77,67,30.23,30.03,6,0,0,0.02
2012-1-15,31.6,20.3,6.1,21.6,13.9,1.7,84,77,66,30.37,30.07,13,3,0,0.02
2012-1-16,54.0,43.2,28.2,50.1,36.2,21.6,87,76,68,30.07,29.71,20,6,0,0.00
2012-1-17,56.5,55.3,54.1,53.6,52.1,50.3,90,89,87,29.70,29.58,21,5,0,0.18
2012-1-25,31.8,31.4,31.3,29.0,28.6,28.2,89,89,88,30.11,30.02,8,1,0,0.04
2012-1-26,34.2,32.8,31.8,32.0,30.5,29.0,92,91,89,30.01,29.60,8,0,0,0.43
2012-1-27,43.0,35.6,31.8,33.0,30.7,28.6,93,83,64,29.99,29.61,9,1,0,0.04
2012-1-28,35.2,32.2,27.7,30.6,25.4,22.0,90,76,59,30.16,29.85,14,2,0,0.06
2012-1-29,35.2,30.9,23.0,25.0,22.4,16.9,77,71,63,30.23,29.98,13,2,0,0.02
2012-1-30,54.7,39.7,22.1,38.3,29.4,16.3,84,68,52,30.22,29.90,20,4,0,0.00
2012-1-31,58.8,51.8,46.2,49.0,40.8,33.1,85,66,56,29.95,29.85,23,6,0,0.00
2012-2-1,53.2,42.5,34.3,48.8,37.7,30.7,88,83,73,30.12,29.88,8,1,0,0.00
2012-2-2,48.9,36.6,28.2,40.2,32.1,25.4,90,84,71,30.35,30.11,8,0,0,0.00
2012-2-3,54.3,38.6,28.0,49.2,34.3,25.5,92,85,67,30.40,30.26,4,0,0,0.00
2012-2-4,40.5,37.0,33.6,38.0,34.1,30.6,91,89,87,30.27,30.07,6,1,0,0.22
2012-2-5,47.5,35.0,27.1,41.0,30.4,24.6,92,84,62,30.25,30.12,5,0,0,0.06
2012-2-6,33.8,29.4,24.1,30.9,26.5,21.3,91,89,86,30.22,30.12,7,0,0,0.00
2012-2-7,35.2,31.7,28.9,30.2,28.0,25.6,89,86,82,30.29,30.14,7,1,0,0.00
2012-2-8,32.7,30.5,25.0,99.9,27.5,20.2,90,86,81,30.33,30.27,6,1,0,0.02
2012-2-9,34.2,27.4,20.5,24.6,20.8,16.1,84,76,66,30.31,30.13,10,0,0,0.02
2012-2-10,33.4,29.8,16.9,30.5,25.2,11.4,90,83,73,30.13,29.87,17,4,0,0.08
2012-2-11,21.4,16.1,10.0,11.1,7.4,2.7,78,68,59,30.35,30.07,21,6,0,0.02
2012-2-12,35.2,22.9,14.4,22.1,12.7,5.9,69,65,55,30.34,30.24,7,1,0,0.00
2012-2-13,33.6,26.3,17.4,24.0,16.4,9.3,86,67,48,30.23,29.89,12,1,0,0.00
2012-2-14,34.3,31.3,27.3,29.9,27.6,23.6,88,86,83,30.03,29.81,6,0,0,0.06
2012-2-15,39.9,35.4,30.0,35.9,32.0,26.9,91,88,82,30.10,29.96,11,2,0,0.02
2012-2-16,46.6,39.2,31.8,39.4,34.8,26.1,92,85,72,30.14,29.91,12,1,0,0.08
2012-2-17,49.6,37.7,26.2,33.0,28.3,21.7,84,70,50,30.17,30.01,14,2,0,0.02
2012-2-18,39.4,33.5,27.0,30.5,25.8,21.0,83,73,57,30.16,30.01,14,3,0,0.00
2012-2-19,37.2,29.5,22.6,26.0,21.6,18.0,83,73,55,30.18,30.07,9,0,0,0.00
2012-2-20,44.2,31.7,19.9,29.8,23.7,15.5,84,73,54,30.28,29.91,13,1,0,0.00
2012-2-21,43.5,39.4,32.9,39.7,34.1,26.0,89,82,70,29.91,29.65,11,2,0,0.16
2012-2-22,51.1,40.9,32.7,39.3,32.8,27.8,84,73,59,29.73,29.38,10,1,0,0.02
2012-2-23,43.3,36.9,29.5,39.7,32.9,24.9,89,85,78,29.54,29.35,5,0,0,0.18
2012-2-24,39.9,34.9,28.0,37.2,29.8,19.6,90,82,70,29.95,29.32,14,4,0,0.12
2012-2-25,28.2,25.0,20.8,19.7,16.8,13.4,79,71,63,30.29,29.95,12,1,0,0.00
2012-2-26,50.5,34.6,19.6,30.3,22.8,14.0,82,64,44,30.30,30.03,20,4,0,0.00
2012-2-27,46.9,37.4,26.1,29.8,24.2,18.4,74,59,48,30.45,30.05,21,2,0,0.00
2012-2-28,52.3,36.9,22.8,36.5,27.3,17.0,82,69,48,30.45,29.84,10,0,0,0.06
2012-2-29,65.1,52.9,38.3,56.0,40.1,27.1,92,65,33,29.82,29.46,20,3,0,0.31
2012-3-1,47.1,37.8,33.6,34.0,29.1,26.7,80,71,60,29.87,29.68,8,1,0,0.00
2012-3-2,55.9,39.6,33.6,51.1,35.0,28.4,90,83,79,29.75,29.19,14,2,0,0.22
2012-3-3,34.0,31.9,30.4,29.0,25.0,22.9,84,76,69,29.84,29.63,11,1,0,0.02
2012-3-4,38.5,31.6,27.3,23.9,22.2,19.8,78,69,51,29.91,29.79,9,1,0,0.00
2012-3-5,39.7,29.6,22.5,24.3,20.8,17.5,81,70,53,30.34,29.92,14,3,0,0.00
2012-3-6,66.0,48.4,28.8,40.9,31.7,22.4,78,55,36,30.28,29.98,25,7,0,0.00
2012-3-7,66.6,59.9,52.3,49.0,39.8,29.2,59,48,34,30.09,29.89,30,10,0,0.00
2012-3-8,63.5,45.5,32.4,53.8,37.4,24.7,88,74,60,30.27,29.83,19,4,0,0.14
2012-3-9,41.7,34.8,25.7,25.5,19.7,13.3,75,56,32,30.51,30.24,18,4,0,0.02
2012-3-10,56.1,38.2,22.3,30.5,21.9,13.1,74,54,36,30.50,30.26,61,3,0,0.00
2012-3-11,66.9,51.7,34.2,41.0,32.9,21.7,64,50,37,30.29,30.07,12,2,0,0.00
2012-3-12,73.2,61.7,51.1,56.9,52.1,38.6,88,72,52,30.07,29.76,21,6,0,0.06
2012-3-13,75.7,59.5,46.6,54.0,47.2,40.6,87,66,42,30.08,29.91,7,0,0,0.02
2012-3-14,79.2,65.0,50.4,60.6,53.4,40.7,88,67,50,30.07,29.96,14,3,0,0.00
2012-3-15,80.8,70.1,62.8,63.5,59.4,55.4,82,70,51,30.05,29.95,14,2,0,0.00
2012-3-16,79.7,66.8,56.5,58.5,56.0,53.0,89,71,46,30.09,30.01,11,2,0,0.00
2012-3-17,79.9,68.2,52.5,99.9,58.1,48.4,91,65,47,30.11,29.99,12,2,0,0.00
2012-3-18,79.3,68.5,57.9,62.3,57.8,53.7,87,70,52,30.09,29.97,9,2,0,0.00
2012-3-19,80.8,69.1,58.8,61.8,57.9,53.2,84,69,48,30.05,29.93,14,3,0,0.00
2012-3-20,82.8,72.3,60.4,99.9,55.4,50.9,74,55,40,30.07,29.97,18,4,0,0.00
2012-3-21,85.1,70.7,59.5,99.9,56.0,51.1,76,56,37,30.12,30.01,13,2,0,0.00
2012-3-22,80.8,69.2,59.4,61.2,54.8,50.7,74,61,45,30.10,29.99,13,2,0,0.00
2012-3-23,71.8,61.5,53.2,62.0,56.1,48.2,91,83,61,30.03,29.78,13,1,0,0.86
2012-3-24,66.9,57.3,52.7,56.3,52.1,48.8,90,83,67,29.89,29.73,11,2,0,0.49
2012-3-25,70.3,57.8,50.5,57.3,51.8,47.5,91,82,58,30.07,29.89,9,3,0,0.02
2012-3-26,58.8,48.5,41.7,48.3,38.0,32.4,85,68,46,30.29,30.07,13,2,0,0.00
2012-3-27,69.1,52.0,36.3,45.6,35.0,23.3,67,53,38,30.26,29.87,16,3,0,0.00
2012-3-28,72.1,63.7,48.9,55.2,45.5,35.7,82,54,29,30.00,29.80,18,3,0,0.00
2012-3-29,64.6,49.2,40.3,99.9,38.7,33.5,79,65,47,30.09,29.92,4,0,0,0.00
2012-3-30,72.1,56.1,45.5,58.5,46.8,39.4,83,72,53,29.93,29.66,15,4,0,0.00
2012-3-31,61.0,48.3,42.4,47.2,41.0,37.5,86,76,59,29.93,29.83,8,1,0,0.00
2012-4-1,77.4,59.0,46.0,66.0,52.2,40.5,92,79,64,29.84,29.60,11,2,0,0.31
2012-4-2,72.1,58.9,48.2,52.7,46.9,42.7,86,67,42,29.89,29.70,7,0,0,0.04
2012-4-3,88.0,63.2,48.7,65.5,49.3,40.3,76,62,44,29.88,29.74,14,1,0,0.00
2012-4-4,70.7,56.8,45.7,49.6,42.9,32.2,83,62,29,29.87,29.77,15,3,0,0.00
2012-4-5,58.8,48.9,39.6,36.6,33.3,30.9,72,56,37,30.06,29.83,14,2,0,0.00
2012-4-6,64.9,45.8,33.1,37.2,30.3,25.1,77,58,33,30.25,30.06,4,0,0,0.00
2012-4-7,68.5,50.8,35.4,36.3,30.4,25.2,69,48,28,30.29,30.14,8,0,0,0.00
2012-4-8,65.8,56.1,43.7,44.8,33.6,25.4,85,48,25,30.25,30.07,15,4,0,0.00
2012-4-9,64.9,55.3,46.9,36.2,28.1,22.6,57,37,24,30.08,29.91,15,3,0,0.00
2012-4-10,49.6,42.2,33.6,25.1,21.3,17.5,65,44,32,30.10,29.96,19,5,0,0.00
2012-4-11,54.9,40.4,28.2,29.4,23.4,16.3,67,52,37,30.24,30.09,14,2,0,0.00
2012-4-12,64.0,46.8,29.8,36.4,28.0,19.9,70,50,33,30.27,30.11,7,0,0,0.00
2012-4-13,63.7,52.2,38.8,39.2,32.6,25.7,64,49,32,30.19,30.03,13,2,0,0.00
2012-4-14,61.2,57.2,54.1,57.6,48.9,38.4,90,75,51,30.05,29.85,10,1,0,0.16
2012-4-15,75.6,69.2,57.9,62.0,58.8,54.7,91,70,62,29.85,29.70,21,6,0,0.04
2012-4-16,70.9,58.4,48.0,60.3,48.7,39.0,90,71,56,30.20,29.62,19,4,0,0.37
2012-4-17,62.6,51.5,39.0,42.7,38.2,34.4,86,63,39,30.34,30.20,8,1,0,0.04
2012-4-18,70.9,55.6,39.7,47.2,40.8,32.8,79,59,42,30.26,29.98,13,1,0,0.00
2012-4-19,76.8,64.8,52.9,50.2,46.0,42.9,71,52,34,30.00,29.76,14,2,0,0.00
2012-4-20,65.3,53.1,41.9,51.1,43.7,37.4,88,72,48,29.92,29.67,12,3,0,0.04
2012-4-21,54.9,45.9,38.8,37.9,34.4,30.6,84,66,44,29.98,29.89,11,2,0,0.02
2012-4-22,54.3,45.3,38.1,38.0,30.9,25.4,78,59,36,30.01,29.90,15,3,0,0.00
2012-4-23,59.2,46.7,34.9,31.8,27.2,22.0,77,49,31,30.00,29.80,17,5,0,0.00
2012-4-24,61.0,49.7,38.1,36.4,28.6,22.3,64,46,28,29.80,29.69,9,1,0,0.00
2012-4-25,75.0,57.9,45.7,56.4,46.9,33.4,84,68,46,29.74,29.59,12,1,0,0.04
2012-4-26,59.5,54.0,40.3,54.5,43.9,23.5,91,70,49,30.08,29.54,18,5,0,0.04
2012-4-27,62.1,46.9,33.8,33.1,25.8,21.7,63,45,29,30.23,30.03,7,0,0,0.00
2012-4-28,51.1,46.5,41.7,41.1,36.8,27.3,83,70,40,30.12,29.92,6,1,0,0.35
2012-4-29,58.6,49.9,43.3,49.3,43.1,36.9,82,78,70,30.19,30.02,5,0,0,0.08
2012-4-30,72.5,61.8,54.3,64.2,56.8,48.4,91,84,70,30.01,29.87,12,1,0,0.37
2012-5-1,69.4,61.1,54.1,64.7,57.3,50.6,91,87,83,30.01,29.80,5,0,0,0.43
2012-5-2,81.7,71.5,58.8,68.0,63.0,55.9,92,76,54,29.95,29.82,12,2,0,0.16
2012-5-3,86.0,75.9,64.0,66.0,63.0,58.1,87,66,48,29.99,29.85,17,3,0,0.00
2012-5-4,82.0,71.5,61.3,67.6,62.7,55.0,88,74,60,29.96,29.86,9,1,0,0.00
2012-5-5,83.8,68.8,54.3,69.2,61.0,51.1,92,78,58,29.99,29.88,5,0,0,0.00
2012-5-6,88.7,69.3,58.3,70.2,61.2,54.1,87,77,51,30.00,29.83,11,1,0,0.31
2012-5-7,72.7,64.1,58.5,65.6,60.1,55.6,92,87,77,29.88,29.79,14,1,0,0.65
2012-5-8,70.3,62.1,55.0,56.0,51.3,46.2,91,70,44,29.90,29.83,7,1,0,0.02
2012-5-9,64.8,56.7,48.7,50.5,46.7,41.2,82,69,54,29.94,29.85,15,1,0,0.04
2012-5-10,68.4,55.8,43.3,47.8,41.5,35.2,86,62,37,30.02,29.92,7,1,0,0.04
2012-5-11,77.2,61.0,44.8,48.8,42.0,33.4,71,52,34,30.15,30.02,9,1,0,0.00
2012-5-12,75.6,64.2,54.1,55.0,48.8,42.9,72,58,40,30.22,30.14,6,0,0,0.00
2012-5-13,76.6,63.2,51.3,57.4,48.9,40.4,73,60,47,30.19,30.04,9,1,0,0.00
2012-5-14,80.8,67.0,55.2,54.3,42.2,34.0,63,42,25,30.09,29.98,6,0,0,0.00
2012-5-15,83.5,69.0,52.0,46.6,41.1,35.2,59,38,24,30.01,29.87,9,0,0,0.00
2012-5-16,71.2,64.7,53.4,49.7,40.8,28.8,78,43,28,30.10,29.86,9,2,0,0.00
2012-5-17,77.5,62.1,47.1,46.5,38.2,29.5,61,43,29,30.15,30.03,5,0,0,0.00
2012-5-18,87.6,67.3,49.1,51.2,42.7,34.2,63,43,25,30.09,29.97,6,0,0,0.00
2012-5-19,90.5,74.9,57.0,62.6,53.7,43.5,67,49,34,30.07,29.99,8,1,0,0.00
2012-5-20,90.3,77.4,64.6,64.4,59.7,54.7,80,56,37,30.10,29.95,10,1,0,0.16
2012-5-21,65.5,62.3,55.9,60.0,52.4,41.1,86,71,47,30.11,29.98,12,2,0,0.22
2012-5-22,72.3,60.9,50.4,48.7,44.7,41.2,77,57,39,30.06,29.90,6,0,0,0.04
2012-5-23,83.7,66.8,48.7,54.0,47.1,39.3,73,52,34,29.92,29.78,8,1,0,0.00
2012-5-24,86.5,73.8,57.4,58.4,54.4,48.9,83,53,35,29.85,29.66,19,3,0,0.00
2012-5-25,91.8,79.1,72.3,63.9,58.9,51.0,70,51,34,30.05,29.76,11,1,0,0.00
2012-5-26,92.5,80.3,68.2,68.9,60.5,51.0,62,51,44,30.12,29.98,8,0,0,0.00
2012-5-27,93.9,82.7,72.5,66.6,62.8,57.7,77,53,33,30.03,29.90,12,1,0,0.00
2012-5-28,91.9,81.4,67.6,67.4,61.5,57.2,76,53,32,29.91,29.75,19,2,0,0.00
2012-5-29,85.5,75.9,67.6,64.6,57.9,49.5,81,56,34,29.89,29.73,6,0,0,0.06
2012-5-30,74.5,66.7,57.0,49.3,45.0,41.6,63,47,34,29.93,29.85,9,1,0,0.02
2012-5-31,64.4,55.3,49.8,51.3,46.8,41.8,90,74,56,29.95,29.74,7,1,0,0.24
2012-6-1,62.4,54.3,51.1,50.1,47.6,43.4,91,79,50,29.81,29.70,10,2,0,0.10
2012-6-2,70.2,59.6,49.6,52.5,48.0,43.4,81,67,48,29.83,29.77,7,0,0,0.00
2012-6-3,80.4,66.9,53.4,58.9,52.5,48.4,88,63,37,29.88,29.79,7,0,0,0.00
2012-6-4,80.4,68.3,59.5,61.7,54.3,46.7,79,63,39,29.89,29.79,8,1,0,0.00
2012-6-5,75.2,64.1,52.7,55.6,49.5,46.4,82,61,42,29.99,29.88,7,0,0,0.00
2012-6-6,79.7,65.3,52.9,53.3,49.1,46.2,79,58,36,30.06,29.99,3,0,0,0.00
2012-6-7,84.0,69.5,54.1,56.0,50.1,45.1,76,52,33,30.12,30.03,2,0,0,0.00
2012-6-8,86.7,72.0,55.2,54.6,50.0,44.5,70,48,32,30.10,29.94,6,0,0,0.00
2012-6-9,88.3,75.3,58.3,57.9,53.1,46.8,71,47,33,30.00,29.89,9,1,0,0.00
2012-6-10,90.5,76.3,61.3,65.3,58.8,51.1,76,56,40,30.00,29.91,11,1,0,0.00
2012-6-11,83.5,75.8,69.4,69.2,64.4,58.9,80,68,55,29.93,29.81,11,1,0,0.00
2012-6-12,79.9,71.2,62.4,64.0,51.8,44.7,85,53,31,30.10,29.87,8,1,0,0.00
2012-6-13,80.2,66.8,51.6,55.8,48.0,42.2,74,53,35,30.18,30.07,2,0,0,0.00
2012-6-14,90.1,70.4,53.4,56.2,48.5,41.0,68,48,28,30.14,30.02,7,0,0,0.00
2012-6-15,94.6,75.1,57.0,59.1,52.2,44.5,67,47,25,30.11,30.02,6,0,0,0.00
2012-6-16,89.2,73.6,63.0,70.3,60.2,49.0,82,64,51,30.10,29.93,13,2,0,0.26
2012-6-17,83.7,73.5,66.4,69.5,65.7,61.9,92,78,56,30.01,29.84,8,0,0,0.51
2012-6-18,90.3,79.0,67.3,71.2,66.8,62.6,89,68,49,29.88,29.77,20,3,0,0.14
2012-6-19,90.7,80.7,72.0,70.6,65.7,61.6,72,61,47,30.03,29.88,14,2,0,0.00
2012-6-20,91.4,80.2,68.2,66.9,63.8,60.7,80,59,39,30.09,29.94,14,2,0,0.00
2012-6-21,85.8,76.6,66.0,69.2,64.5,59.7,85,67,55,29.99,29.91,14,1,0,0.06
2012-6-22,82.0,72.4,62.6,60.7,56.9,51.7,82,60,37,30.01,29.96,7,0,0,0.04
2012-6-23,86.0,73.2,59.2,61.5,56.9,50.7,76,58,40,30.05,29.98,7,0,0,0.00
2012-6-24,90.5,78.1,66.9,65.0,61.2,57.6,75,57,41,30.02,29.90,8,0,0,0.00
2012-6-25,81.5,73.0,62.1,65.0,55.3,44.6,79,56,30,30.03,29.91,8,1,0,0.00
2012-6-26,85.8,68.5,53.4,56.1,51.0,45.7,77,56,35,30.07,29.93,3,0,0,0.00
2012-6-27,88.9,73.6,56.3,59.0,53.2,45.8,70,51,33,30.02,29.83,10,1,0,0.00
2012-6-28,99.5,81.1,68.9,75.8,63.0,53.0,67,55,45,29.88,29.79,8,0,0,0.00
2012-6-29,94.1,82.1,73.8,80.3,72.3,64.2,84,73,58,29.91,29.79,10,0,0,0.02
2012-6-30,86.5,76.0,66.9,72.0,67.8,62.3,91,76,59,29.93,29.81,8,0,0,0.53
2012-7-1,88.2,77.5,69.1,75.8,69.4,65.3,90,77,63,30.00,29.87,5,0,0,0.10
2012-7-2,94.8,80.4,67.8,77.9,70.3,63.8,90,73,51,30.01,29.93,8,0,0,0.00
2012-7-3,95.4,82.1,67.3,73.4,68.1,60.8,82,64,45,29.98,29.85,8,0,0,0.00
2012-7-4,99.5,86.9,73.9,77.0,72.5,68.3,83,64,44,29.93,29.87,4,0,0,0.00
2012-7-5,98.8,88.2,76.6,73.2,70.2,67.6,77,57,38,29.98,29.90,4,0,0,0.00
2012-7-6,102.2,88.1,75.0,76.4,71.6,66.1,75,59,40,30.00,29.92,3,0,0,0.00
2012-7-7,100.2,87.1,74.5,75.8,72.1,67.6,82,63,41,29.98,29.90,6,0,0,0.00
2012-7-8,81.5,74.9,69.1,71.5,66.2,58.7,87,75,51,30.05,29.96,6,0,0,0.06
2012-7-9,92.8,77.6,64.9,67.5,62.5,58.4,81,62,40,30.05,29.98,3,0,0,0.02
2012-7-10,75.0,74.4,73.4,60.7,59.3,57.6,61,59,58,30.03,30.02,0,0,0,0.00
2012-7-12,96.3,80.1,63.1,65.1,59.8,52.6,71,52,34,30.10,30.01,0,0,0,0.00
2012-7-13,94.6,80.2,66.4,71.6,64.8,57.3,83,61,42,30.09,29.99,5,0,0,0.00
2012-7-14,88.3,76.3,67.6,72.3,66.7,61.0,85,73,56,30.09,29.98,5,0,0,0.04
2012-7-15,90.7,78.4,68.9,75.3,69.4,65.2,91,75,52,30.10,29.99,8,0,0,0.24
2012-7-16,94.6,82.5,68.7,74.1,69.3,63.0,87,66,46,30.05,29.88,8,0,0,0.24
2012-7-17,96.4,82.2,74.7,75.7,71.6,68.4,82,71,47,29.92,29.83,8,0,0,0.00
2012-7-18,99.5,83.6,73.6,77.4,72.6,69.2,87,72,42,29.94,29.85,8,0,0,0.16
2012-7-19,94.5,78.7,72.1,77.3,71.5,67.9,92,79,56,29.96,29.81,9,1,0,0.73
2012-7-20,83.5,73.9,68.7,69.2,66.1,62.0,90,78,56,30.06,29.90,4,0,0,0.26
2012-7-21,86.0,74.8,60.6,66.9,62.9,56.8,91,69,45,30.13,30.04,2,0,0,0.00
2012-7-22,92.1,80.7,69.1,69.3,65.3,62.0,79,61,45,30.14,30.02,4,0,0,0.00
2012-7-23,96.1,85.6,76.8,73.4,69.1,61.9,69,58,45,30.06,29.92,8,1,0,0.00
2012-7-24,86.9,81.4,73.8,72.1,69.2,65.3,83,67,55,30.00,29.89,12,0,0,0.00
2012-7-25,100.2,80.3,67.8,72.9,67.7,63.8,90,69,41,29.95,29.66,16,0,0,0.00
2012-7-26,87.6,82.4,75.7,70.5,69.1,66.8,74,65,51,29.79,29.65,10,1,0,0.00
2012-7-27,86.2,75.9,66.7,73.0,64.7,60.8,85,70,44,29.95,29.80,8,1,0,0.24
2012-7-28,84.2,73.3,65.1,64.0,61.2,56.3,89,68,43,30.10,29.95,4,0,0,0.02
2012-7-29,90.1,74.3,60.3,65.3,59.3,53.8,83,62,41,30.12,29.98,1,0,0,0.00
2012-7-30,92.5,78.7,64.6,70.4,63.1,55.9,77,60,44,30.00,29.88,4,0,0,0.00
2012-7-31,90.0,75.5,67.8,73.7,65.4,61.1,84,71,51,29.99,29.87,6,0,0,0.47
2012-8-1,88.0,75.6,63.1,66.9,62.8,57.5,85,66,45,29.97,29.87,4,0,0,0.02
2012-8-2,93.9,70.6,58.8,66.2,59.0,53.0,84,69,36,29.92,29.82,1,0,0,0.00
2012-8-3,98.8,80.8,65.3,72.3,66.4,58.6,89,64,39,29.90,29.83,4,0,0,0.00
2012-8-4,95.2,79.0,69.1,77.5,68.6,62.6,88,72,47,29.93,29.79,9,1,0,0.08
2012-8-5,84.7,75.6,69.6,68.6,64.2,58.8,92,70,46,30.14,29.86,7,0,0,1.57
2012-8-6,88.3,73.1,60.1,62.6,59.1,54.6,84,64,40,30.17,30.02,0,0,0,0.14
2012-8-7,92.1,76.0,59.9,64.7,60.3,53.6,84,61,40,30.02,29.91,7,0,0,0.00
2012-8-8,91.6,78.3,69.8,69.4,64.6,60.9,86,64,43,29.97,29.91,9,0,0,0.18
2012-8-9,82.9,72.2,65.5,70.1,65.7,61.5,90,81,62,29.93,29.76,5,0,0,0.18
2012-8-10,74.1,66.2,60.8,61.7,57.8,50.5,90,76,50,29.94,29.77,10,2,0,0.04
2012-8-11,74.5,60.9,53.2,55.0,52.5,48.2,84,75,50,29.98,29.92,7,0,0,0.00
2012-10-23,62.4,61.3,61.0,58.5,58.0,57.8,89,89,87,29.93,29.93,0,0,0,1.24
2012-10-24,77.7,66.4,57.0,64.2,58.7,52.5,88,77,62,29.99,29.91,11,2,0,0.04
2012-10-25,77.5,65.6,47.1,62.1,56.6,42.2,87,74,58,29.98,29.78,18,5,0,0.00
2012-10-26,48.4,42.9,38.5,42.3,35.4,31.5,88,75,60,30.26,29.98,15,5,0,0.16
2012-10-27,50.2,41.7,35.8,36.4,32.9,30.1,81,72,57,30.23,30.14,12,4,0,0.00
2012-10-28,48.6,41.3,34.3,34.8,31.3,28.6,84,69,48,30.19,30.13,12,3,0,0.00
2012-10-29,51.6,42.1,33.1,35.8,31.7,27.2,83,67,46,30.17,29.95,25,8,0,0.00
2012-10-30,44.2,40.8,37.2,33.1,30.6,28.4,72,67,61,29.95,29.70,19,10,0,0.00
2012-10-31,45.3,40.2,33.6,33.3,29.1,25.8,73,65,58,29.83,29.73,13,3,0,0.00
2012-11-1,55.0,41.3,29.5,31.3,25.6,20.5,70,55,33,29.88,29.80,8,0,0,0.00
2012-11-2,50.7,41.2,34.5,34.4,30.9,27.7,82,68,45,30.10,29.83,6,1,0,0.00
2012-11-3,40.8,36.5,32.7,34.7,31.6,28.4,87,82,76,30.16,30.09,3,0,0,0.04
2012-11-4,50.2,37.5,30.6,38.8,31.4,26.0,87,79,63,30.19,30.12,5,0,0,0.02
2012-11-5,47.5,35.0,25.5,35.5,27.7,21.9,88,76,55,30.16,30.07,1,0,0,0.00
2012-11-6,46.9,36.4,26.2,35.8,29.6,21.0,87,77,62,30.08,29.87,3,0,0,0.06
2012-11-7,46.6,41.2,37.9,41.6,37.2,34.4,90,86,76,30.13,29.86,3,0,0,0.08
2012-11-8,45.1,40.0,34.3,40.5,35.2,29.3,90,83,71,30.20,30.09,4,0,0,0.00
2012-11-9,60.6,45.2,30.6,48.0,37.9,27.1,90,77,59,30.11,29.96,13,2,0,0.00
2012-11-10,70.3,57.9,44.6,53.2,46.6,38.8,82,67,49,30.02,29.94,16,4,0,0.00
2012-11-11,67.6,60.8,51.6,51.5,48.2,44.8,84,64,56,30.02,29.84,23,8,0,0.06
2012-11-12,51.4,36.1,30.6,47.0,29.5,24.1,88,77,60,30.33,29.91,9,0,0,0.35
2012-11-13,42.1,31.8,24.6,27.5,23.3,19.4,82,71,55,30.48,30.33,1,0,0,0.02
2012-11-14,45.9,33.3,25.0,31.5,24.8,19.1,81,72,55,30.50,30.35,8,0,0,0.00
2012-11-15,49.8,34.5,26.1,36.3,26.9,21.1,87,75,56,30.37,30.29,0,0,0,0.00
2012-11-16,55.2,37.4,26.6,37.9,27.9,22.0,87,70,46,30.45,30.34,3,0,0,0.00
2012-11-17,60.1,40.0,27.1,40.5,30.4,21.7,83,70,47,30.52,30.41,7,0,0,0.00
2012-11-18,63.1,42.9,30.4,41.7,32.1,24.7,84,67,41,30.42,30.31,3,0,0,0.00
2012-11-19,56.1,45.0,34.7,40.0,34.4,27.5,76,67,53,30.32,30.11,5,0,0,0.00
2012-11-20,55.6,50.6,46.9,45.3,42.1,38.8,80,73,66,30.14,30.03,2,0,0,0.00
2012-11-21,60.1,44.6,32.7,50.2,39.0,28.7,91,81,66,30.23,30.13,3,0,0,0.00
2012-11-22,60.6,50.1,39.4,49.1,42.6,35.7,91,76,59,30.13,29.86,13,4,0,0.10
2012-11-23,53.2,34.4,24.1,49.1,26.4,15.7,87,73,65,30.19,29.87,14,3,0,0.10
2012-11-24,33.6,27.9,25.7,22.3,19.2,17.9,77,70,61,30.24,30.02,5,0,0,0.00
2012-11-25,47.7,37.0,26.6,31.7,26.6,20.6,78,66,53,30.03,29.85,10,1,0,0.00
2012-11-26,40.3,34.6,30.6,29.8,25.6,22.6,76,70,60,30.29,30.01,8,1,0,0.00
2012-11-27,38.1,29.2,21.4,24.6,19.3,14.3,76,67,56,30.38,30.26,4,0,0,0.00
2012-11-28,47.1,33.9,25.2,29.2,22.5,17.1,74,63,47,30.37,30.25,6,0,0,0.00
2012-11-29,49.8,36.8,25.9,34.1,27.3,19.2,80,69,54,30.30,30.09,10,1,0,0.00
2012-11-30,57.9,45.4,33.6,38.6,32.7,26.4,77,62,48,30.11,30.02,8,1,0,0.00
2012-12-1,62.1,48.3,31.8,51.0,40.5,26.4,89,75,61,30.12,29.96,16,4,0,0.00
2012-12-2,64.2,58.0,53.4,57.0,51.6,46.8,90,80,60,30.04,29.90,20,3,0,0.06
2012-12-3,70.3,62.7,55.8,60.3,57.2,52.9,93,83,67,30.04,29.86,22,5,0,0.06
2012-12-4,64.2,52.0,42.6,56.8,45.6,36.2,87,79,69,30.19,29.91,20,2,0,0.16
2012-12-8,43.5,39.1,35.8,40.0,35.3,32.2,88,86,85,30.03,29.94,7,1,0,0.02
2012-12-9,48.7,41.6,36.3,46.8,39.3,33.0,93,91,88,30.02,29.69,7,1,0,0.12
2012-12-10,39.4,31.0,28.6,37.2,27.8,24.8,92,88,85,29.94,29.72,7,1,0,0.04
2012-12-11,34.7,29.6,24.1,25.8,23.6,20.5,89,79,64,30.16,29.93,12,1,0,0.00
2012-12-12,44.4,32.4,22.6,30.6,24.2,17.9,85,73,53,30.32,30.16,7,0,0,0.00
2012-12-13,46.9,35.5,26.4,30.9,25.6,20.8,82,68,49,30.31,30.12,9,2,0,0.00
2012-12-14,51.6,39.9,30.0,35.4,29.5,22.5,77,67,53,30.20,30.06,5,0,0,0.00
2012-12-15,52.7,44.4,35.2,49.2,39.6,28.5,90,83,73,30.05,29.61,14,3,0,0.20
2012-12-16,52.2,46.3,39.6,49.3,42.8,36.0,90,88,83,29.71,29.61,12,0,0,0.04
2012-12-17,39.6,37.2,33.6,36.0,33.7,30.4,89,87,86,29.71,29.60,2,0,0,0.04
2012-12-18,43.9,36.8,33.1,38.5,32.8,29.6,90,86,81,29.79,29.59,13,2,0,0.06
2012-12-19,41.0,38.1,34.7,37.4,33.8,30.6,88,85,82,30.02,29.77,8,0,0,0.10
2012-12-20,53.4,41.4,30.7,49.7,38.1,27.9,92,88,72,29.76,29.10,20,5,0,1.14
2012-12-21,30.4,25.5,20.5,27.6,21.2,15.3,89,84,79,30.14,29.45,18,6,0,0.04
2012-12-22,33.3,22.9,14.4,24.3,17.2,10.4,84,79,68,30.20,29.96,6,0,0,0.00
2012-12-23,38.5,28.4,20.8,31.9,23.8,16.7,86,83,76,29.96,29.87,1,0,0,0.00
2012-12-24,32.4,30.3,27.3,28.4,26.6,23.9,88,86,84,30.01,29.77,8,1,0,0.00
2012-12-25,37.0,31.7,28.0,28.5,25.8,23.8,85,79,69,30.21,30.00,8,1,0,0.00
2012-12-26,30.4,29.0,27.3,25.2,24.0,22.6,89,82,77,30.09,29.82,14,6,0,0.00
2012-12-27,30.9,28.8,27.0,26.5,24.6,22.6,87,84,82,30.14,29.99,4,0,0,0.00
2012-12-28,31.3,29.8,28.6,27.3,26.1,25.2,88,86,84,30.11,29.83,8,0,0,0.00
2012-12-29,30.4,27.2,21.4,27.6,23.4,16.7,89,86,81,30.21,29.80,9,2,0,0.00
2012-12-30,32.2,22.4,12.9,23.5,16.6,9.0,86,78,68,30.34,30.18,8,2,0,0.00
2012-12-31,34.2,30.6,25.9,29.1,25.3,20.4,89,81,72,30.16,30.01,11,1,0,0.08
2013-1-1,26.4,20.9,11.1,22.8,15.7,4.6,86,80,74,30.20,30.07,8,1,0,0.02